EDLN/MGL METAR and TAF weather

Enter ICAO airport designator
Station Type Date Time Source
EDLN METAR 2022/06/27 09:20 UTC NOAA

EDLN 270920Z VRB02KT 9999 FEW019 19/16 Q1016


Station Type Date Time Source
EDLN Decoded METAR 2022/06/27 09:20 UTC NOAA

Monchengladbach, Germany (EDLN) 51-13-49N 006-30-16E
Jun 27, 2022 - 05:20 AM EDT / 2022.06.27 0920 UTC
Wind: Variable at 2 MPH (2 KT):0
Visibility: greater than 7 mile(s):0
Sky conditions: mostly clear
Temperature: 66 F (19 C)
Dew Point: 60 F (16 C)
Relative Humidity: 82%
Pressure (altimeter): 30.00 in. Hg (1016 hPa)
ob: EDLN 270920Z VRB02KT 9999 FEW019 19/16 Q1016
cycle: 9

Station Type Date Time Source
EDLN TAF 2010/02/22 14:20 UTC NOAA

METAR EDLN 221420Z 18010G20KT 090V240 9999 SCT030 BKN045 11/06 Q0986
RMK ATIS R=

Example: see airport list